createdAt,value
2022-07-31T00:00:26.380Z,0.00
2022-07-31T00:01:25.660Z,0.00
2022-07-31T00:02:25.346Z,0.00
2022-07-31T00:03:25.395Z,0.00
2022-07-31T00:04:25.320Z,0.00
2022-07-31T00:05:25.306Z,0.00
2022-07-31T00:06:25.601Z,0.00
2022-07-31T00:07:25.292Z,0.00
2022-07-31T00:08:25.527Z,0.00
2022-07-31T00:09:52.541Z,0.00
2022-07-31T00:10:26.266Z,0.00
2022-07-31T00:11:25.235Z,0.00
2022-07-31T00:12:25.224Z,0.00
2022-07-31T00:13:57.490Z,0.00
2022-07-31T00:14:26.228Z,0.00
2022-07-31T00:15:25.191Z,0.00
2022-07-31T00:16:25.204Z,0.00
2022-07-31T00:17:25.166Z,0.00
2022-07-31T00:18:25.156Z,0.00
2022-07-31T00:19:25.158Z,0.00
2022-07-31T00:20:25.456Z,0.00
2022-07-31T00:21:25.116Z,0.00
2022-07-31T00:22:25.109Z,0.00
2022-07-31T00:23:25.096Z,0.00
2022-07-31T00:24:25.077Z,0.00
2022-07-31T00:25:25.067Z,0.00
2022-07-31T00:26:25.381Z,0.00
2022-07-31T00:27:25.061Z,0.00
2022-07-31T00:28:25.032Z,0.00
2022-07-31T00:29:25.032Z,0.00
2022-07-31T00:30:25.026Z,0.00
2022-07-31T00:31:25.045Z,0.00
2022-07-31T00:32:24.981Z,0.00
2022-07-31T00:33:24.993Z,0.00
2022-07-31T00:34:24.961Z,0.00
2022-07-31T00:35:24.964Z,0.00
2022-07-31T00:36:29.921Z,0.00
2022-07-31T00:37:26.216Z,0.00
2022-07-31T00:38:26.959Z,0.00
2022-07-31T00:39:24.902Z,0.00
2022-07-31T00:40:24.907Z,0.00
2022-07-31T00:41:25.134Z,0.00
2022-07-31T00:42:24.891Z,0.00
2022-07-31T00:43:27.452Z,0.00
2022-07-31T00:44:25.846Z,0.00
2022-07-31T00:45:29.087Z,0.00
2022-07-31T00:46:25.850Z,0.00
2022-07-31T00:47:25.641Z,0.00
2022-07-31T00:48:25.119Z,0.00
2022-07-31T00:49:24.845Z,0.00
2022-07-31T00:50:24.791Z,0.00
2022-07-31T00:51:24.778Z,0.00
2022-07-31T00:52:24.755Z,0.00
2022-07-31T00:53:25.047Z,0.00
2022-07-31T00:54:24.728Z,0.00
2022-07-31T00:55:24.718Z,0.00
2022-07-31T00:56:24.948Z,0.00
2022-07-31T00:57:24.746Z,0.00
2022-07-31T00:58:24.679Z,0.00
2022-07-31T00:59:25.086Z,0.00
2022-07-31T01:00:24.905Z,0.00
2022-07-31T01:01:24.708Z,0.00
2022-07-31T01:02:24.645Z,0.00
2022-07-31T01:03:24.635Z,0.00
2022-07-31T01:04:24.622Z,0.00
2022-07-31T01:05:24.614Z,0.00
2022-07-31T01:06:24.842Z,0.00
2022-07-31T01:07:24.597Z,0.00
2022-07-31T01:08:24.562Z,0.00
2022-07-31T01:09:24.567Z,0.00
2022-07-31T01:10:24.551Z,0.00
2022-07-31T01:11:24.764Z,0.00
2022-07-31T01:12:24.516Z,0.00
2022-07-31T01:13:24.506Z,0.00
2022-07-31T01:14:24.485Z,0.00
2022-07-31T01:15:24.497Z,0.00
2022-07-31T01:16:24.484Z,0.00
2022-07-31T01:17:24.762Z,0.00
2022-07-31T01:18:24.447Z,0.00
2022-07-31T01:19:24.448Z,0.00
2022-07-31T01:20:25.442Z,0.00
2022-07-31T01:21:24.431Z,0.00
2022-07-31T01:22:33.243Z,0.00
2022-07-31T01:23:25.711Z,0.00
2022-07-31T01:24:24.396Z,0.00
2022-07-31T01:25:24.371Z,0.00
2022-07-31T01:26:24.661Z,0.00
2022-07-31T01:27:24.341Z,0.00
2022-07-31T01:28:24.345Z,0.00
2022-07-31T01:29:24.321Z,0.00
2022-07-31T01:30:28.841Z,0.00
2022-07-31T01:31:27.594Z,0.00
2022-07-31T01:32:27.598Z,0.00
2022-07-31T01:33:24.272Z,0.00
2022-07-31T01:34:24.276Z,0.00
2022-07-31T01:35:24.577Z,0.00
2022-07-31T01:36:24.247Z,0.00
2022-07-31T01:37:24.237Z,0.00
2022-07-31T01:38:24.205Z,0.00
2022-07-31T01:39:24.218Z,0.00
2022-07-31T01:40:24.199Z,0.00
2022-07-31T01:41:24.509Z,0.00
2022-07-31T01:42:24.166Z,0.00
2022-07-31T01:43:24.179Z,0.00
2022-07-31T01:44:24.136Z,0.00
2022-07-31T01:45:24.150Z,0.00
2022-07-31T01:46:24.118Z,0.00
2022-07-31T01:47:24.442Z,0.00
2022-07-31T01:48:24.114Z,0.00
2022-07-31T01:49:24.141Z,0.00
2022-07-31T01:50:43.469Z,0.00
2022-07-31T01:51:25.059Z,0.00
2022-07-31T01:52:24.372Z,0.00
2022-07-31T01:53:24.127Z,0.00
2022-07-31T01:54:24.029Z,0.00
2022-07-31T01:55:24.575Z,0.00
2022-07-31T01:56:24.002Z,0.00
2022-07-31T01:57:24.304Z,0.00
2022-07-31T01:58:23.994Z,0.00
2022-07-31T01:59:24.536Z,0.00
2022-07-31T02:00:34.268Z,0.00
2022-07-31T02:01:27.231Z,0.00
2022-07-31T02:02:23.965Z,0.00
2022-07-31T02:03:42.796Z,0.00
2022-07-31T02:04:24.925Z,0.00
2022-07-31T02:05:23.906Z,0.00
2022-07-31T02:06:23.884Z,0.00
2022-07-31T02:07:23.890Z,0.00
2022-07-31T02:08:23.877Z,0.00
2022-07-31T02:09:24.174Z,0.00
2022-07-31T02:10:23.837Z,0.00
2022-07-31T02:11:23.865Z,0.00
2022-07-31T02:12:32.075Z,0.00
2022-07-31T02:13:24.829Z,0.00
2022-07-31T02:14:23.809Z,0.00
2022-07-31T02:15:24.006Z,0.00
2022-07-31T02:16:23.768Z,0.00
2022-07-31T02:17:23.758Z,0.00
2022-07-31T02:18:23.747Z,0.00
2022-07-31T02:19:23.738Z,0.00
2022-07-31T02:20:23.740Z,0.00
2022-07-31T02:21:23.710Z,0.00
2022-07-31T02:22:24.101Z,0.00
2022-07-31T02:23:23.710Z,0.00
2022-07-31T02:24:23.688Z,0.00
2022-07-31T02:25:23.664Z,0.00
2022-07-31T02:26:23.652Z,0.00
2022-07-31T02:27:58.330Z,0.00
2022-07-31T02:28:24.942Z,0.00
2022-07-31T02:29:23.622Z,0.00
2022-07-31T02:30:23.616Z,0.00
2022-07-31T02:31:23.593Z,0.00
2022-07-31T02:32:23.584Z,0.00
2022-07-31T02:33:23.577Z,0.00
2022-07-31T02:34:29.944Z,0.00
2022-07-31T02:35:24.546Z,0.00
2022-07-31T02:36:23.559Z,0.00
2022-07-31T02:37:23.548Z,0.00
2022-07-31T02:38:23.979Z,0.00
2022-07-31T02:39:26.481Z,0.00
2022-07-31T02:40:24.529Z,0.00
2022-07-31T02:41:23.477Z,0.00
2022-07-31T02:42:23.468Z,0.00
2022-07-31T02:43:23.469Z,0.00
2022-07-31T02:44:26.987Z,0.00
2022-07-31T02:45:23.429Z,0.00
2022-07-31T02:46:23.669Z,0.00
2022-07-31T02:47:23.422Z,0.00
2022-07-31T02:48:23.412Z,0.00
2022-07-31T02:49:23.450Z,0.00
2022-07-31T02:50:23.371Z,0.00
2022-07-31T02:51:23.377Z,0.00
2022-07-31T02:52:24.640Z,0.00
2022-07-31T02:53:23.355Z,0.00
2022-07-31T02:54:23.355Z,0.00
2022-07-31T02:55:23.312Z,0.00
2022-07-31T02:56:23.325Z,0.00
2022-07-31T02:57:23.293Z,0.00
2022-07-31T02:58:23.316Z,0.00
2022-07-31T02:59:23.315Z,0.00
2022-07-31T03:00:23.688Z,0.00
2022-07-31T03:01:23.598Z,0.00
2022-07-31T03:02:23.248Z,0.00
2022-07-31T03:03:24.238Z,0.00
2022-07-31T03:04:23.230Z,0.00
2022-07-31T03:05:23.203Z,0.00
2022-07-31T03:06:23.200Z,0.00
2022-07-31T03:07:23.489Z,0.00
2022-07-31T03:08:23.188Z,0.00
2022-07-31T03:09:23.169Z,0.00
2022-07-31T03:10:23.465Z,0.00
2022-07-31T03:11:23.150Z,0.00
2022-07-31T03:12:23.132Z,0.00
2022-07-31T03:13:23.122Z,0.00
2022-07-31T03:14:23.111Z,0.00
2022-07-31T03:15:23.080Z,0.00
2022-07-31T03:16:23.379Z,0.00
2022-07-31T03:17:23.061Z,0.00
2022-07-31T03:18:24.050Z,0.00
2022-07-31T03:19:23.054Z,0.00
2022-07-31T03:20:23.044Z,0.00
2022-07-31T03:21:23.213Z,0.00
2022-07-31T03:22:23.001Z,0.00
2022-07-31T03:23:23.209Z,0.00
2022-07-31T03:24:22.995Z,0.00
2022-07-31T03:25:22.963Z,0.00
2022-07-31T03:26:23.189Z,0.00
2022-07-31T03:27:22.955Z,4.00
2022-07-31T03:28:22.933Z,0.00
2022-07-31T03:29:38.903Z,0.00
2022-07-31T03:30:23.912Z,0.00
2022-07-31T03:31:22.897Z,4.00
2022-07-31T03:32:23.108Z,4.00
2022-07-31T03:33:22.874Z,4.00
2022-07-31T03:34:22.880Z,0.00
2022-07-31T03:35:22.909Z,4.00
2022-07-31T03:36:22.866Z,4.00
2022-07-31T03:37:22.874Z,4.00
2022-07-31T03:38:38.686Z,8.00
2022-07-31T03:39:23.807Z,4.00
2022-07-31T03:40:22.810Z,8.00
2022-07-31T03:41:23.121Z,4.00
2022-07-31T03:42:22.771Z,8.00
2022-07-31T03:43:23.012Z,8.00
2022-07-31T03:44:22.770Z,8.00
2022-07-31T03:45:22.730Z,8.00
2022-07-31T03:46:22.730Z,12.00
2022-07-31T03:47:22.714Z,12.00
2022-07-31T03:48:22.701Z,12.00
2022-07-31T03:49:23.072Z,16.00
2022-07-31T03:50:22.681Z,20.00
2022-07-31T03:51:22.675Z,16.00
2022-07-31T03:52:22.653Z,20.00
2022-07-31T03:53:22.642Z,20.00
2022-07-31T03:54:22.956Z,24.00
2022-07-31T03:55:22.613Z,24.00
2022-07-31T03:56:22.614Z,28.00
2022-07-31T03:57:22.606Z,28.00
2022-07-31T03:58:22.597Z,28.00
2022-07-31T03:59:22.875Z,32.00
2022-07-31T04:00:22.566Z,36.00
2022-07-31T04:01:22.582Z,40.00
2022-07-31T04:02:22.561Z,40.00
2022-07-31T04:03:22.527Z,40.00
2022-07-31T04:04:22.815Z,48.00
2022-07-31T04:05:22.511Z,48.00
2022-07-31T04:06:22.501Z,52.00
2022-07-31T04:07:22.477Z,56.00
2022-07-31T04:08:22.469Z,64.00
2022-07-31T04:09:22.474Z,68.00
2022-07-31T04:10:22.748Z,68.00
2022-07-31T04:11:22.439Z,80.00
2022-07-31T04:12:22.426Z,84.00
2022-07-31T04:13:22.422Z,92.00
2022-07-31T04:14:22.412Z,104.00
2022-07-31T04:15:22.400Z,112.00
2022-07-31T04:16:22.593Z,112.00
2022-07-31T04:17:22.381Z,120.00
2022-07-31T04:18:22.371Z,128.00
2022-07-31T04:19:22.332Z,132.00
2022-07-31T04:20:22.329Z,140.00
2022-07-31T04:21:22.311Z,152.00
2022-07-31T04:22:22.528Z,156.00
2022-07-31T04:23:22.321Z,160.00
2022-07-31T04:24:23.296Z,164.00
2022-07-31T04:25:22.567Z,168.00
2022-07-31T04:26:26.405Z,176.00
2022-07-31T04:27:22.578Z,192.00
2022-07-31T04:28:22.247Z,188.00
2022-07-31T04:29:22.236Z,184.00
2022-07-31T04:30:22.215Z,184.00
2022-07-31T04:31:22.196Z,180.00
2022-07-31T04:32:22.418Z,176.00
2022-07-31T04:33:22.188Z,176.00
2022-07-31T04:34:22.193Z,184.00
2022-07-31T04:35:22.189Z,180.00
2022-07-31T04:36:29.668Z,184.00
2022-07-31T04:37:23.433Z,188.00
2022-07-31T04:38:22.128Z,188.00
2022-07-31T04:39:22.217Z,188.00
2022-07-31T04:40:22.110Z,180.00
2022-07-31T04:41:22.099Z,176.00
2022-07-31T04:42:22.091Z,172.00
2022-07-31T04:43:22.383Z,168.00
2022-07-31T04:44:22.063Z,164.00
2022-07-31T04:45:22.051Z,160.00
2022-07-31T04:46:22.022Z,152.00
2022-07-31T04:47:22.011Z,152.00
2022-07-31T04:48:22.327Z,160.00
2022-07-31T04:49:22.037Z,160.00
2022-07-31T04:50:21.995Z,168.00
2022-07-31T04:51:21.962Z,176.00
2022-07-31T04:52:29.065Z,184.00
2022-07-31T04:53:23.837Z,188.00
2022-07-31T04:54:22.207Z,184.00
2022-07-31T04:55:23.579Z,188.00
2022-07-31T04:56:24.574Z,208.00
2022-07-31T04:57:22.304Z,220.00
2022-07-31T04:58:21.908Z,224.00
2022-07-31T04:59:24.610Z,232.00
2022-07-31T05:00:23.190Z,232.00
2022-07-31T05:01:21.889Z,236.00
2022-07-31T05:02:21.840Z,240.00
2022-07-31T05:03:21.827Z,240.00
2022-07-31T05:04:24.786Z,224.00
2022-07-31T05:05:21.797Z,220.00
2022-07-31T05:06:21.798Z,232.00
2022-07-31T05:07:21.778Z,232.00
2022-07-31T05:08:22.094Z,224.00
2022-07-31T05:09:23.690Z,208.00
2022-07-31T05:10:24.410Z,204.00
2022-07-31T05:11:21.739Z,224.00
2022-07-31T05:12:21.742Z,236.00
2022-07-31T05:13:22.127Z,252.00
2022-07-31T05:14:24.375Z,260.00
2022-07-31T05:15:24.341Z,284.00
2022-07-31T05:16:21.697Z,296.00
2022-07-31T05:17:21.676Z,304.00
2022-07-31T05:18:21.864Z,320.00
2022-07-31T05:19:24.273Z,344.00
2022-07-31T05:20:21.623Z,380.00
2022-07-31T05:21:24.305Z,408.00
2022-07-31T05:22:24.313Z,432.00
2022-07-31T05:23:21.595Z,448.00
2022-07-31T05:24:33.686Z,448.00
2022-07-31T05:25:25.571Z,424.00
2022-07-31T05:26:21.557Z,472.00
2022-07-31T05:27:24.194Z,484.00
2022-07-31T05:28:28.254Z,476.00
2022-07-31T05:29:22.537Z,424.00
2022-07-31T05:30:30.248Z,376.00
2022-07-31T05:31:22.498Z,348.00
2022-07-31T05:32:21.495Z,348.00
2022-07-31T05:33:21.488Z,348.00
2022-07-31T05:34:24.219Z,336.00
2022-07-31T05:35:21.448Z,328.00
2022-07-31T05:36:21.779Z,328.00
2022-07-31T05:37:21.439Z,328.00
2022-07-31T05:38:21.432Z,320.00
2022-07-31T05:39:24.050Z,300.00
2022-07-31T05:40:21.764Z,276.00
2022-07-31T05:41:21.382Z,256.00
2022-07-31T05:42:21.380Z,244.00
2022-07-31T05:43:21.375Z,240.00
2022-07-31T05:44:23.999Z,228.00
2022-07-31T05:45:21.342Z,212.00
2022-07-31T05:46:24.262Z,224.00
2022-07-31T05:47:21.334Z,248.00
2022-07-31T05:48:24.056Z,284.00
2022-07-31T05:49:21.360Z,340.00
2022-07-31T05:50:21.296Z,380.00
2022-07-31T05:51:21.267Z,420.00
2022-07-31T05:52:21.587Z,444.00
2022-07-31T05:53:21.264Z,444.00
2022-07-31T05:54:21.265Z,456.00
2022-07-31T05:55:21.239Z,464.00
2022-07-31T05:56:21.215Z,508.00
2022-07-31T05:57:34.193Z,540.00
2022-07-31T05:58:22.219Z,548.00
2022-07-31T05:59:23.899Z,548.00
2022-07-31T06:00:23.870Z,544.00
2022-07-31T06:01:21.573Z,548.00
2022-07-31T06:02:23.850Z,512.00
2022-07-31T06:03:21.982Z,492.00
2022-07-31T06:04:21.473Z,492.00
2022-07-31T06:05:21.100Z,528.00
2022-07-31T06:06:21.114Z,520.00
2022-07-31T06:07:23.721Z,504.00
2022-07-31T06:08:21.071Z,520.00
2022-07-31T06:09:21.059Z,512.00
2022-07-31T06:10:21.303Z,544.00
2022-07-31T06:11:23.733Z,556.00
2022-07-31T06:12:21.043Z,528.00
2022-07-31T06:13:21.011Z,516.00
2022-07-31T06:14:21.023Z,504.00
2022-07-31T06:15:23.922Z,516.00
2022-07-31T06:16:23.665Z,540.00
2022-07-31T06:17:20.970Z,548.00
2022-07-31T06:18:20.970Z,540.00
2022-07-31T06:19:24.501Z,540.00
2022-07-31T06:20:20.946Z,540.00
2022-07-31T06:21:52.090Z,528.00
2022-07-31T06:22:51.998Z,516.00
2022-07-31T06:23:52.027Z,476.00
2022-07-31T06:24:51.971Z,444.00
2022-07-31T06:25:53.663Z,444.00
2022-07-31T06:26:52.650Z,440.00
2022-07-31T06:28:00.066Z,420.00
2022-07-31T06:28:55.943Z,452.00
2022-07-31T06:29:51.913Z,488.00
2022-07-31T06:30:51.878Z,476.00
2022-07-31T06:31:51.878Z,480.00
2022-07-31T06:32:51.863Z,480.00
2022-07-31T06:33:56.483Z,496.00
2022-07-31T06:34:52.165Z,524.00
2022-07-31T06:35:51.831Z,556.00
2022-07-31T06:36:51.810Z,620.00
2022-07-31T06:37:51.804Z,736.00
2022-07-31T06:38:51.782Z,816.00
2022-07-31T06:39:54.322Z,848.00
2022-07-31T06:40:51.762Z,912.00
2022-07-31T06:41:52.056Z,948.00
2022-07-31T06:42:51.755Z,940.00
2022-07-31T06:43:51.748Z,988.00
2022-07-31T06:44:52.031Z,996.00
2022-07-31T06:45:54.402Z,1040.00
2022-07-31T06:46:51.695Z,1132.00
2022-07-31T06:47:51.684Z,1120.00
2022-07-31T06:48:51.980Z,1084.00
2022-07-31T06:49:52.059Z,1028.00
2022-07-31T06:51:08.584Z,1076.00
2022-07-31T06:51:52.858Z,1132.00
2022-07-31T06:52:51.627Z,1052.00
2022-07-31T06:53:51.630Z,1012.00
2022-07-31T06:54:51.612Z,988.00
2022-07-31T06:55:51.708Z,952.00
2022-07-31T06:56:52.069Z,988.00
2022-07-31T06:57:51.583Z,964.00
2022-07-31T06:58:51.579Z,964.00
2022-07-31T06:59:51.590Z,1032.00
2022-07-31T07:00:51.528Z,1040.00
2022-07-31T07:01:51.779Z,1012.00
2022-07-31T07:02:51.501Z,928.00
2022-07-31T07:03:51.511Z,928.00
2022-07-31T07:04:58.526Z,928.00
2022-07-31T07:05:55.164Z,864.00
2022-07-31T07:06:51.789Z,832.00
2022-07-31T07:07:51.465Z,808.00
2022-07-31T07:08:51.447Z,800.00
2022-07-31T07:09:51.504Z,788.00
2022-07-31T07:10:51.412Z,748.00
2022-07-31T07:11:54.789Z,760.00
2022-07-31T07:12:51.429Z,764.00
2022-07-31T07:13:51.685Z,816.00
2022-07-31T07:14:51.366Z,940.00
2022-07-31T07:15:52.191Z,1040.00
2022-07-31T07:16:51.968Z,1056.00
2022-07-31T07:17:52.031Z,1080.00
2022-07-31T07:18:54.020Z,1108.00
2022-07-31T07:19:54.765Z,1208.00
2022-07-31T07:20:52.098Z,1360.00
2022-07-31T07:21:51.303Z,1472.00
2022-07-31T07:22:53.936Z,1500.00
2022-07-31T07:23:51.258Z,1352.00
2022-07-31T07:24:51.558Z,1176.00
2022-07-31T07:25:51.279Z,1108.00
2022-07-31T07:26:51.269Z,1164.00
2022-07-31T07:27:51.232Z,1208.00
2022-07-31T07:28:51.200Z,1196.00
2022-07-31T07:29:53.154Z,1208.00
2022-07-31T07:30:51.286Z,1208.00
2022-07-31T07:31:51.280Z,1200.00
2022-07-31T07:32:51.151Z,1140.00
2022-07-31T07:33:51.149Z,1104.00
2022-07-31T07:34:59.480Z,1064.00
2022-07-31T07:35:55.102Z,1080.00
2022-07-31T07:36:51.127Z,1060.00
2022-07-31T07:37:51.114Z,1056.00
2022-07-31T07:38:51.131Z,988.00
2022-07-31T07:39:51.084Z,1012.00
2022-07-31T07:40:51.288Z,1144.00
2022-07-31T07:41:51.891Z,1228.00
2022-07-31T07:42:51.048Z,1252.00
2022-07-31T07:43:51.685Z,1248.00
2022-07-31T07:44:51.043Z,1212.00
2022-07-31T07:45:53.716Z,1200.00
2022-07-31T07:46:50.995Z,1156.00
2022-07-31T07:48:05.716Z,1160.00
2022-07-31T07:48:52.041Z,1184.00
2022-07-31T07:49:52.671Z,1292.00
2022-07-31T07:50:50.962Z,1308.00
2022-07-31T07:51:58.882Z,1352.00
2022-07-31T07:52:53.935Z,1344.00
2022-07-31T07:53:52.628Z,1324.00
2022-07-31T07:54:50.925Z,1316.00
2022-07-31T07:55:50.904Z,1308.00
2022-07-31T07:56:50.893Z,1220.00
2022-07-31T07:57:51.147Z,1220.00
2022-07-31T07:58:51.171Z,1260.00
2022-07-31T07:59:50.861Z,1404.00
2022-07-31T08:00:50.898Z,1488.00
2022-07-31T08:01:50.822Z,1540.00
2022-07-31T08:03:46.623Z,1540.00
2022-07-31T08:03:54.089Z,1476.00
2022-07-31T08:04:50.826Z,1444.00
2022-07-31T08:05:51.147Z,1384.00
2022-07-31T08:06:50.765Z,1468.00
2022-07-31T08:07:50.755Z,1480.00
2022-07-31T08:08:50.756Z,1516.00
2022-07-31T08:09:51.045Z,1540.00
2022-07-31T08:10:50.931Z,1652.00
2022-07-31T08:11:51.043Z,1536.00
2022-07-31T08:12:50.696Z,1508.00
2022-07-31T08:13:51.370Z,1520.00
2022-07-31T08:14:50.669Z,1536.00
2022-07-31T08:15:50.667Z,1612.00
2022-07-31T08:16:52.758Z,1552.00
2022-07-31T08:17:53.312Z,1652.00
2022-07-31T08:18:50.641Z,1772.00
2022-07-31T08:19:51.411Z,1632.00
2022-07-31T08:20:50.810Z,1736.00
2022-07-31T08:21:50.590Z,1592.00
2022-07-31T08:22:50.592Z,1512.00
2022-07-31T08:23:53.242Z,1492.00
2022-07-31T08:24:50.566Z,1436.00
2022-07-31T08:25:51.424Z,1248.00
2022-07-31T08:26:50.546Z,1300.00
2022-07-31T08:27:50.530Z,1608.00
2022-07-31T08:28:51.205Z,1532.00
2022-07-31T08:29:50.502Z,1668.00
2022-07-31T08:30:52.423Z,1724.00
2022-07-31T08:31:50.516Z,1780.00
2022-07-31T08:32:50.477Z,1956.00
2022-07-31T08:33:50.773Z,2080.00
2022-07-31T08:34:50.456Z,1916.00
2022-07-31T08:35:51.037Z,1736.00
2022-07-31T08:36:50.436Z,1824.00
2022-07-31T08:38:03.942Z,1612.00
2022-07-31T08:38:52.199Z,1612.00
2022-07-31T08:39:50.388Z,1584.00
2022-07-31T08:40:50.389Z,1592.00
2022-07-31T08:41:50.366Z,1524.00
2022-07-31T08:42:50.357Z,1304.00
2022-07-31T08:44:00.179Z,1176.00
2022-07-31T08:44:51.370Z,1136.00
2022-07-31T08:45:50.548Z,1196.00
2022-07-31T08:46:50.323Z,1228.00
2022-07-31T08:47:53.042Z,1396.00
2022-07-31T08:48:50.334Z,1444.00
2022-07-31T08:49:50.284Z,1492.00
2022-07-31T08:50:54.003Z,1496.00
2022-07-31T08:51:52.790Z,1448.00
2022-07-31T08:52:52.949Z,1376.00
2022-07-31T08:53:50.243Z,1388.00
2022-07-31T08:54:50.239Z,1272.00
2022-07-31T08:55:56.289Z,1160.00
2022-07-31T08:56:53.926Z,1100.00
2022-07-31T08:57:50.183Z,1100.00
2022-07-31T08:58:52.866Z,1176.00
2022-07-31T08:59:50.153Z,1180.00
2022-07-31T09:00:50.177Z,1176.00
2022-07-31T09:01:50.171Z,1212.00
2022-07-31T09:02:50.146Z,1268.00
2022-07-31T09:03:50.142Z,1264.00
2022-07-31T09:04:52.582Z,1296.00
2022-07-31T09:05:52.755Z,1368.00
2022-07-31T09:06:51.800Z,1484.00
2022-07-31T09:07:50.409Z,1528.00
2022-07-31T09:08:52.840Z,1536.00
2022-07-31T09:09:51.595Z,1544.00
2022-07-31T09:10:50.495Z,1656.00
2022-07-31T09:11:50.058Z,1772.00
2022-07-31T09:12:50.022Z,1704.00
2022-07-31T09:14:02.075Z,1708.00
2022-07-31T09:14:50.979Z,1684.00
2022-07-31T09:15:49.992Z,1788.00
2022-07-31T09:16:50.001Z,1792.00
2022-07-31T09:17:54.234Z,1688.00
2022-07-31T09:18:49.993Z,1704.00
2022-07-31T09:19:53.722Z,1804.00
2022-07-31T09:20:52.662Z,1840.00
2022-07-31T09:21:49.909Z,1876.00
2022-07-31T09:22:49.915Z,1816.00
2022-07-31T09:23:51.556Z,1684.00
2022-07-31T09:24:49.872Z,1584.00
2022-07-31T09:25:50.422Z,1500.00
2022-07-31T09:26:49.864Z,1584.00
2022-07-31T09:27:49.868Z,1684.00
2022-07-31T09:28:49.834Z,1760.00
2022-07-31T09:29:52.564Z,1752.00
2022-07-31T09:30:56.373Z,1760.00
2022-07-31T09:31:50.080Z,1948.00
2022-07-31T09:32:49.786Z,2036.00
2022-07-31T09:33:49.774Z,1888.00
2022-07-31T09:34:49.796Z,1704.00
2022-07-31T09:35:49.760Z,1660.00
2022-07-31T09:36:49.975Z,1704.00
2022-07-31T09:37:50.441Z,1636.00
2022-07-31T09:38:50.441Z,1608.00
2022-07-31T09:39:51.835Z,1660.00
2022-07-31T09:40:57.720Z,1852.00
2022-07-31T09:42:02.021Z,1892.00
2022-07-31T09:42:55.207Z,1916.00
2022-07-31T09:43:51.891Z,1908.00
2022-07-31T09:44:49.663Z,1924.00
2022-07-31T09:45:52.392Z,1940.00
2022-07-31T09:46:49.636Z,2088.00
2022-07-31T09:47:51.378Z,2016.00
2022-07-31T09:48:49.953Z,1760.00
2022-07-31T09:49:50.442Z,1840.00
2022-07-31T09:50:49.586Z,1672.00
2022-07-31T09:51:52.313Z,1692.00
2022-07-31T09:52:49.553Z,1816.00
2022-07-31T09:53:49.564Z,1792.00
2022-07-31T09:54:49.826Z,1780.00
2022-07-31T09:55:49.616Z,1912.00
2022-07-31T09:56:49.758Z,2036.00
2022-07-31T09:57:50.237Z,2192.00
2022-07-31T09:58:49.497Z,2272.00
2022-07-31T09:59:49.512Z,2296.00
2022-07-31T10:00:49.904Z,2224.00
2022-07-31T10:01:49.478Z,1976.00
2022-07-31T10:02:50.477Z,1872.00
2022-07-31T10:03:49.449Z,1976.00
2022-07-31T10:04:49.431Z,1892.00
2022-07-31T10:05:49.424Z,1912.00
2022-07-31T10:06:49.409Z,2032.00
2022-07-31T10:07:49.702Z,2108.00
2022-07-31T10:08:49.392Z,2192.00
2022-07-31T10:09:49.685Z,2260.00
2022-07-31T10:10:52.001Z,2164.00
2022-07-31T10:11:51.018Z,2288.00
2022-07-31T10:12:49.343Z,2272.00
2022-07-31T10:13:49.333Z,2144.00
2022-07-31T10:14:49.309Z,2096.00
2022-07-31T10:15:50.485Z,1856.00
2022-07-31T10:16:49.314Z,1820.00
2022-07-31T10:17:49.295Z,1864.00
2022-07-31T10:18:49.277Z,1800.00
2022-07-31T10:19:49.252Z,1824.00
2022-07-31T10:20:51.193Z,1824.00
2022-07-31T10:21:49.223Z,1844.00
2022-07-31T10:22:49.227Z,1772.00
2022-07-31T10:23:49.223Z,1824.00
2022-07-31T10:24:51.854Z,2052.00
2022-07-31T10:25:53.636Z,2244.00
2022-07-31T10:27:09.217Z,2124.00
2022-07-31T10:27:50.166Z,2112.00
2022-07-31T10:28:49.168Z,2292.00
2022-07-31T10:29:49.127Z,2344.00
2022-07-31T10:30:49.142Z,2376.00
2022-07-31T10:31:49.336Z,2436.00
2022-07-31T10:32:49.922Z,2428.00
2022-07-31T10:33:50.083Z,2400.00
2022-07-31T10:34:49.362Z,2316.00
2022-07-31T10:35:55.761Z,2292.00
2022-07-31T10:36:50.082Z,2292.00
2022-07-31T10:37:49.191Z,2276.00
2022-07-31T10:38:49.054Z,2260.00
2022-07-31T10:39:49.354Z,2108.00
2022-07-31T10:40:51.715Z,2036.00
2022-07-31T10:41:49.357Z,2152.00
2022-07-31T10:42:48.998Z,2292.00
2022-07-31T10:43:51.631Z,2236.00
2022-07-31T10:44:48.962Z,2176.00
2022-07-31T10:45:51.906Z,2068.00
2022-07-31T10:46:48.945Z,1984.00
2022-07-31T10:47:48.970Z,1916.00
2022-07-31T10:48:49.011Z,2200.00
2022-07-31T10:49:50.865Z,2360.00
2022-07-31T10:50:49.359Z,2416.00
2022-07-31T10:51:53.542Z,2412.00
2022-07-31T10:53:00.477Z,2444.00
2022-07-31T10:53:50.877Z,2400.00
2022-07-31T10:54:49.871Z,2480.00
2022-07-31T10:55:48.855Z,2548.00
2022-07-31T10:56:48.852Z,2532.00
2022-07-31T10:57:56.468Z,2400.00
2022-07-31T10:58:49.817Z,2288.00
2022-07-31T10:59:48.795Z,2188.00
2022-07-31T11:00:49.014Z,2112.00
2022-07-31T11:01:53.011Z,2116.00
2022-07-31T11:02:48.780Z,2048.00
2022-07-31T11:03:49.064Z,1888.00
2022-07-31T11:04:48.752Z,1796.00
2022-07-31T11:06:01.894Z,1936.00
2022-07-31T11:06:49.727Z,2080.00
2022-07-31T11:07:48.707Z,2072.00
2022-07-31T11:08:48.709Z,1972.00
2022-07-31T11:09:50.890Z,1976.00
2022-07-31T11:10:48.667Z,2080.00
2022-07-31T11:11:48.701Z,2192.00
2022-07-31T11:12:48.662Z,2080.00
2022-07-31T11:13:48.944Z,1988.00
2022-07-31T11:14:48.961Z,2032.00
2022-07-31T11:15:48.623Z,2080.00
2022-07-31T11:16:48.624Z,2620.00
2022-07-31T11:18:21.998Z,3172.00
2022-07-31T11:18:50.269Z,3092.00
2022-07-31T11:19:48.585Z,2940.00
2022-07-31T11:20:48.855Z,2648.00
2022-07-31T11:21:48.876Z,2620.00
2022-07-31T11:22:48.533Z,2572.00
2022-07-31T11:24:02.775Z,2548.00
2022-07-31T11:24:49.566Z,2468.00
2022-07-31T11:25:48.525Z,2528.00
2022-07-31T11:26:48.839Z,2564.00
2022-07-31T11:27:48.496Z,2524.00
2022-07-31T11:28:48.488Z,2436.00
2022-07-31T11:30:02.080Z,2232.00
2022-07-31T11:30:49.466Z,1952.00
2022-07-31T11:31:48.444Z,1816.00
2022-07-31T11:32:48.444Z,1932.00
2022-07-31T11:33:48.428Z,2272.00
2022-07-31T11:34:48.421Z,2312.00
2022-07-31T11:35:48.403Z,2248.00
2022-07-31T11:36:51.539Z,2240.00
2022-07-31T11:37:56.801Z,2092.00
2022-07-31T11:38:49.397Z,2192.00
2022-07-31T11:39:51.316Z,1984.00
2022-07-31T11:40:48.344Z,1912.00
2022-07-31T11:41:48.326Z,1968.00
2022-07-31T11:43:04.668Z,1920.00
2022-07-31T11:43:49.312Z,1856.00
2022-07-31T11:44:48.420Z,1964.00
2022-07-31T11:45:48.307Z,2192.00
2022-07-31T11:46:48.583Z,2268.00
2022-07-31T11:48:11.699Z,2444.00
2022-07-31T11:48:49.281Z,2440.00
2022-07-31T11:49:49.294Z,2040.00
2022-07-31T11:50:48.214Z,1820.00
2022-07-31T11:51:48.413Z,1744.00
2022-07-31T11:52:48.404Z,1716.00
2022-07-31T11:53:56.604Z,1788.00
2022-07-31T11:54:49.175Z,1988.00
2022-07-31T11:55:48.312Z,2336.00
2022-07-31T11:56:48.146Z,2636.00
2022-07-31T11:57:51.250Z,2604.00
2022-07-31T11:58:48.416Z,2208.00
2022-07-31T11:59:49.457Z,1936.00
2022-07-31T12:00:48.137Z,1856.00
2022-07-31T12:01:48.121Z,1880.00
2022-07-31T12:02:48.135Z,1848.00
2022-07-31T12:03:48.269Z,1968.00
2022-07-31T12:04:48.328Z,1960.00
2022-07-31T12:05:48.355Z,1588.00
2022-07-31T12:06:48.029Z,1316.00
2022-07-31T12:07:48.994Z,1388.00
2022-07-31T12:08:48.011Z,1296.00
2022-07-31T12:10:02.606Z,1244.00
2022-07-31T12:10:49.315Z,1076.00
2022-07-31T12:11:47.972Z,1064.00
2022-07-31T12:12:47.963Z,1568.00
2022-07-31T12:13:48.443Z,1504.00
2022-07-31T12:14:47.958Z,1792.00
2022-07-31T12:15:48.154Z,2112.00
2022-07-31T12:16:47.934Z,2080.00
2022-07-31T12:17:47.908Z,1872.00
2022-07-31T12:18:47.898Z,1348.00
2022-07-31T12:19:48.297Z,1116.00
2022-07-31T12:20:48.176Z,1236.00
2022-07-31T12:21:47.855Z,1084.00
2022-07-31T12:22:47.868Z,1040.00
2022-07-31T12:23:47.855Z,1080.00
2022-07-31T12:24:47.840Z,1136.00
2022-07-31T12:25:48.452Z,1276.00
2022-07-31T12:26:47.888Z,1340.00
2022-07-31T12:27:47.808Z,1320.00
2022-07-31T12:28:47.788Z,1368.00
2022-07-31T12:29:48.459Z,1324.00
2022-07-31T12:30:47.780Z,1300.00
2022-07-31T12:31:48.332Z,1524.00
2022-07-31T12:32:47.772Z,1892.00
2022-07-31T12:33:48.460Z,1988.00